createdAt,value
2018-02-23T00:00:23.717Z,0
2018-02-23T00:01:24.287Z,0
2018-02-23T00:02:25.016Z,0
2018-02-23T00:03:25.594Z,0
2018-02-23T00:04:26.180Z,0
2018-02-23T00:05:26.803Z,0
2018-02-23T00:06:27.383Z,0
2018-02-23T00:07:28.014Z,0
2018-02-23T00:08:28.595Z,0
2018-02-23T00:09:29.177Z,0
2018-02-23T00:10:29.757Z,0
2018-02-23T00:11:30.337Z,0
2018-02-23T00:12:30.916Z,0
2018-02-23T00:13:31.494Z,0
2018-02-23T00:14:32.073Z,0
2018-02-23T00:15:32.653Z,0
2018-02-23T00:16:33.270Z,0
2018-02-23T00:17:33.808Z,0
2018-02-23T00:18:34.440Z,0
2018-02-23T00:19:35.017Z,0
2018-02-23T00:20:35.644Z,0
2018-02-23T00:21:36.229Z,0
2018-02-23T00:22:36.810Z,0
2018-02-23T00:23:37.397Z,0
2018-02-23T00:24:37.972Z,0
2018-02-23T00:25:38.547Z,0
2018-02-23T00:26:39.174Z,0
2018-02-23T00:27:39.753Z,0
2018-02-23T00:28:40.332Z,0
2018-02-23T00:29:40.917Z,0
2018-02-23T00:30:41.597Z,0
2018-02-23T00:31:42.176Z,0
2018-02-23T00:32:42.863Z,0
2018-02-23T00:33:43.438Z,0
2018-02-23T00:34:44.119Z,0
2018-02-23T00:35:44.699Z,0
2018-02-23T00:36:45.293Z,0
2018-02-23T00:37:45.863Z,0
2018-02-23T00:38:46.444Z,0
2018-02-23T00:39:47.026Z,0
2018-02-23T00:40:47.606Z,0
2018-02-23T00:41:48.184Z,0
2018-02-23T00:42:48.760Z,0
2018-02-23T00:43:49.340Z,0
2018-02-23T00:44:49.916Z,0
2018-02-23T00:45:50.493Z,0
2018-02-23T00:46:51.072Z,0
2018-02-23T00:47:51.703Z,0
2018-02-23T00:48:52.281Z,0
2018-02-23T00:49:52.910Z,0
2018-02-23T00:50:53.489Z,0
2018-02-23T00:51:54.118Z,0
2018-02-23T00:52:54.697Z,0
2018-02-23T00:53:55.277Z,0
2018-02-23T00:54:55.856Z,0
2018-02-23T00:55:56.434Z,0
2018-02-23T00:56:57.014Z,0
2018-02-23T00:57:57.597Z,0
2018-02-23T00:58:58.180Z,0
2018-02-23T00:59:58.761Z,0
2018-02-23T01:00:59.347Z,0
2018-02-23T01:01:59.923Z,0
2018-02-23T01:03:00.504Z,0
2018-02-23T01:04:01.085Z,0
2018-02-23T01:05:01.715Z,0
2018-02-23T01:06:02.296Z,0
2018-02-23T01:07:02.879Z,0
2018-02-23T01:08:03.458Z,0
2018-02-23T01:09:04.038Z,0
2018-02-23T01:10:04.615Z,0
2018-02-23T01:11:05.241Z,0
2018-02-23T01:12:05.823Z,0
2018-02-23T01:13:06.404Z,0
2018-02-23T01:14:06.983Z,0
2018-02-23T01:15:07.611Z,0
2018-02-23T01:16:08.209Z,0
2018-02-23T01:17:08.778Z,0
2018-02-23T01:18:09.403Z,0
2018-02-23T01:19:09.995Z,0
2018-02-23T01:20:10.610Z,0
2018-02-23T01:21:11.192Z,0
2018-02-23T01:22:11.772Z,0
2018-02-23T01:23:12.401Z,0
2018-02-23T01:24:12.980Z,0
2018-02-23T01:25:13.560Z,0
2018-02-23T01:26:14.137Z,0
2018-02-23T01:27:14.722Z,0
2018-02-23T01:28:15.352Z,0
2018-02-23T01:29:15.937Z,0
2018-02-23T01:30:16.560Z,0
2018-02-23T01:31:17.138Z,0
2018-02-23T01:32:17.719Z,0
2018-02-23T01:33:18.299Z,0
2018-02-23T01:34:18.875Z,0
2018-02-23T01:35:19.504Z,0
2018-02-23T01:36:20.122Z,0
2018-02-23T01:37:20.704Z,0
2018-02-23T01:38:21.279Z,0
2018-02-23T01:39:21.858Z,0
2018-02-23T01:40:22.441Z,0
2018-02-23T01:41:23.014Z,0
2018-02-23T01:42:23.651Z,0
2018-02-23T01:43:24.232Z,0
2018-02-23T01:44:24.861Z,0
2018-02-23T01:45:25.441Z,0
2018-02-23T01:46:26.016Z,0
2018-02-23T01:47:26.598Z,0
2018-02-23T01:48:27.178Z,0
2018-02-23T01:49:27.750Z,0
2018-02-23T01:50:28.383Z,0
2018-02-23T01:51:28.961Z,0
2018-02-23T01:52:29.541Z,0
2018-02-23T01:53:30.122Z,0
2018-02-23T01:54:30.705Z,0
2018-02-23T01:55:31.286Z,0
2018-02-23T01:56:31.871Z,0
2018-02-23T01:57:32.449Z,0
2018-02-23T01:58:33.024Z,0
2018-02-23T01:59:33.600Z,0
2018-02-23T02:00:34.231Z,0
2018-02-23T02:01:34.812Z,0
2018-02-23T02:02:35.393Z,0
2018-02-23T02:03:35.975Z,0
2018-02-23T02:04:36.599Z,0
2018-02-23T02:05:37.183Z,0
2018-02-23T02:06:37.762Z,0
2018-02-23T02:07:38.391Z,0
2018-02-23T02:08:39.116Z,0
2018-02-23T02:09:39.695Z,0
2018-02-23T02:10:40.273Z,0
2018-02-23T02:11:40.851Z,0
2018-02-23T02:12:41.430Z,0
2018-02-23T02:13:42.010Z,0
2018-02-23T02:14:42.593Z,0
2018-02-23T02:15:43.174Z,0
2018-02-23T02:16:43.905Z,0
2018-02-23T02:17:44.477Z,0
2018-02-23T02:18:45.054Z,0
2018-02-23T02:19:45.631Z,0
2018-02-23T02:20:46.207Z,0
2018-02-23T02:21:46.829Z,0
2018-02-23T02:22:47.407Z,0
2018-02-23T02:23:48.025Z,0
2018-02-23T02:24:48.602Z,0
2018-02-23T02:25:49.177Z,0
2018-02-23T02:26:49.754Z,0
2018-02-23T02:27:50.414Z,0
2018-02-23T02:28:50.989Z,0
2018-02-23T02:29:51.615Z,0
2018-02-23T02:30:52.189Z,0
2018-02-23T02:31:52.807Z,0
2018-02-23T02:32:53.381Z,0
2018-02-23T02:33:53.956Z,0
2018-02-23T02:34:54.538Z,0
2018-02-23T02:35:55.107Z,0
2018-02-23T02:36:55.680Z,0
2018-02-23T02:37:56.256Z,0
2018-02-23T02:38:56.828Z,0
2018-02-23T02:39:58.259Z,0
2018-02-23T02:40:58.923Z,0
2018-02-23T02:41:59.495Z,0
2018-02-23T02:43:00.094Z,0
2018-02-23T02:44:00.698Z,0
2018-02-23T02:45:01.274Z,0
2018-02-23T02:46:01.851Z,0
2018-02-23T02:47:02.431Z,0
2018-02-23T02:48:03.005Z,0
2018-02-23T02:49:03.582Z,0
2018-02-23T02:50:04.156Z,0
2018-02-23T02:51:04.731Z,0
2018-02-23T02:52:05.304Z,0
2018-02-23T02:53:05.881Z,0
2018-02-23T02:54:06.458Z,0
2018-02-23T02:55:07.120Z,0
2018-02-23T02:56:07.693Z,0
2018-02-23T02:57:08.266Z,0
2018-02-23T02:58:08.842Z,0
2018-02-23T02:59:09.419Z,0
2018-02-23T03:00:10.046Z,0
2018-02-23T03:01:10.672Z,0
2018-02-23T03:02:11.301Z,0
2018-02-23T03:03:11.873Z,0
2018-02-23T03:04:12.445Z,0
2018-02-23T03:05:13.019Z,0
2018-02-23T03:06:13.594Z,0
2018-02-23T03:07:14.168Z,0
2018-02-23T03:08:14.739Z,0
2018-02-23T03:09:15.311Z,0
2018-02-23T03:10:15.884Z,0
2018-02-23T03:11:16.464Z,0
2018-02-23T03:12:17.037Z,0
2018-02-23T03:13:17.607Z,0
2018-02-23T03:14:18.184Z,0
2018-02-23T03:15:18.807Z,0
2018-02-23T03:16:19.381Z,0
2018-02-23T03:17:20.006Z,0
2018-02-23T03:18:20.581Z,0
2018-02-23T03:19:21.159Z,0
2018-02-23T03:20:21.735Z,0
2018-02-23T03:21:22.311Z,0
2018-02-23T03:22:22.937Z,0
2018-02-23T03:23:23.511Z,0
2018-02-23T03:24:24.086Z,0
2018-02-23T03:25:24.663Z,0
2018-02-23T03:26:25.241Z,0
2018-02-23T03:27:25.869Z,0
2018-02-23T03:28:26.445Z,0
2018-02-23T03:29:27.021Z,0
2018-02-23T03:30:27.601Z,0
2018-02-23T03:31:28.176Z,0
2018-02-23T03:32:28.752Z,0
2018-02-23T03:33:29.377Z,0
2018-02-23T03:34:29.995Z,0
2018-02-23T03:35:30.569Z,0
2018-02-23T03:36:31.143Z,0
2018-02-23T03:37:31.817Z,0
2018-02-23T03:38:32.392Z,0
2018-02-23T03:39:32.971Z,0
2018-02-23T03:40:33.550Z,0
2018-02-23T03:41:34.167Z,0
2018-02-23T03:42:34.744Z,0
2018-02-23T03:43:35.320Z,0
2018-02-23T03:44:35.897Z,0
2018-02-23T03:45:36.480Z,0
2018-02-23T03:46:37.054Z,0
2018-02-23T03:47:37.631Z,0
2018-02-23T03:48:38.250Z,0
2018-02-23T03:49:38.830Z,0
2018-02-23T03:50:39.414Z,0
2018-02-23T03:51:40.037Z,0
2018-02-23T03:52:40.621Z,0
2018-02-23T03:53:41.248Z,0
2018-02-23T03:54:41.822Z,0
2018-02-23T03:55:42.457Z,0
2018-02-23T03:56:43.047Z,0
2018-02-23T03:57:43.616Z,0
2018-02-23T03:58:44.198Z,0
2018-02-23T03:59:44.823Z,0
2018-02-23T04:00:45.402Z,0
2018-02-23T04:01:45.980Z,0
2018-02-23T04:02:46.561Z,0
2018-02-23T04:03:47.140Z,0
2018-02-23T04:04:47.721Z,0
2018-02-23T04:05:48.299Z,0
2018-02-23T04:06:48.878Z,0
2018-02-23T04:07:49.460Z,0
2018-02-23T04:08:50.040Z,0
2018-02-23T04:09:50.614Z,0
2018-02-23T04:10:51.246Z,0
2018-02-23T04:11:51.822Z,0
2018-02-23T04:12:52.399Z,0
2018-02-23T04:13:53.025Z,0
2018-02-23T04:14:53.653Z,0
2018-02-23T04:15:54.229Z,0
2018-02-23T04:16:54.810Z,0
2018-02-23T04:17:55.386Z,0
2018-02-23T04:18:55.966Z,0
2018-02-23T04:19:56.543Z,0
2018-02-23T04:20:57.121Z,0
2018-02-23T04:21:57.702Z,0
2018-02-23T04:22:58.328Z,0
2018-02-23T04:23:58.910Z,0
2018-02-23T04:24:59.492Z,0
2018-02-23T04:26:00.071Z,0
2018-02-23T04:27:00.652Z,0
2018-02-23T04:28:01.286Z,0
2018-02-23T04:29:01.962Z,0
2018-02-23T04:30:02.642Z,0
2018-02-23T04:31:03.269Z,0
2018-02-23T04:32:03.844Z,0
2018-02-23T04:33:04.426Z,0
2018-02-23T04:34:05.009Z,0
2018-02-23T04:35:05.583Z,0
2018-02-23T04:36:06.214Z,0
2018-02-23T04:37:06.791Z,0
2018-02-23T04:38:07.370Z,0
2018-02-23T04:39:07.948Z,0
2018-02-23T04:40:08.527Z,0
2018-02-23T04:41:09.107Z,0
2018-02-23T04:42:09.684Z,0
2018-02-23T04:43:10.314Z,0
2018-02-23T04:44:10.891Z,0
2018-02-23T04:45:11.474Z,0
2018-02-23T04:46:12.046Z,0
2018-02-23T04:47:12.677Z,0
2018-02-23T04:48:13.254Z,0
2018-02-23T04:49:13.885Z,0
2018-02-23T04:50:14.423Z,0
2018-02-23T04:51:15.096Z,0
2018-02-23T04:52:15.678Z,0
2018-02-23T04:53:16.295Z,0
2018-02-23T04:54:17.021Z,0
2018-02-23T04:55:17.600Z,0
2018-02-23T04:56:18.184Z,0
2018-02-23T04:57:18.809Z,0
2018-02-23T04:58:19.392Z,0
2018-02-23T04:59:20.016Z,0
2018-02-23T05:00:20.595Z,0
2018-02-23T05:01:21.173Z,0
2018-02-23T05:02:21.754Z,0
2018-02-23T05:03:22.334Z,0
2018-02-23T05:04:22.913Z,0
2018-02-23T05:05:23.493Z,0
2018-02-23T05:06:24.075Z,0
2018-02-23T05:07:24.654Z,0
2018-02-23T05:08:25.228Z,0
2018-02-23T05:09:25.808Z,0
2018-02-23T05:10:26.433Z,0
2018-02-23T05:11:27.061Z,0
2018-02-23T05:12:27.642Z,0
2018-02-23T05:13:28.368Z,0
2018-02-23T05:14:28.947Z,0
2018-02-23T05:15:29.525Z,0
2018-02-23T05:16:30.134Z,0
2018-02-23T05:17:30.684Z,0
2018-02-23T05:18:31.313Z,0
2018-02-23T05:19:31.896Z,0
2018-02-23T05:20:32.471Z,0
2018-02-23T05:21:33.050Z,0
2018-02-23T05:22:33.628Z,0
2018-02-23T05:23:34.256Z,0
2018-02-23T05:24:34.840Z,0
2018-02-23T05:25:35.418Z,0
2018-02-23T05:26:35.995Z,0
2018-02-23T05:27:36.579Z,0
2018-02-23T05:28:37.198Z,0
2018-02-23T05:29:37.832Z,0
2018-02-23T05:30:38.457Z,0
2018-02-23T05:31:39.037Z,0
2018-02-23T05:32:39.665Z,0
2018-02-23T05:33:40.242Z,0
2018-02-23T05:34:40.829Z,0
2018-02-23T05:35:41.451Z,0
2018-02-23T05:36:42.026Z,0
2018-02-23T05:37:42.606Z,0
2018-02-23T05:38:43.183Z,0
2018-02-23T05:39:43.763Z,0
2018-02-23T05:40:44.394Z,0
2018-02-23T05:41:44.973Z,0
2018-02-23T05:42:45.555Z,0
2018-02-23T05:43:46.135Z,0
2018-02-23T05:44:46.767Z,0
2018-02-23T05:45:47.346Z,0
2018-02-23T05:46:47.928Z,0
2018-02-23T05:47:48.507Z,0
2018-02-23T05:48:49.085Z,0
2018-02-23T05:49:49.713Z,0
2018-02-23T05:50:50.339Z,0
2018-02-23T05:51:50.872Z,0
2018-02-23T05:52:51.457Z,0
2018-02-23T05:53:52.030Z,0
2018-02-23T05:54:52.615Z,0
2018-02-23T05:55:53.290Z,0
2018-02-23T05:56:53.876Z,0
2018-02-23T05:57:54.453Z,0
2018-02-23T05:58:55.033Z,0
2018-02-23T05:59:55.622Z,0
2018-02-23T06:00:56.286Z,0
2018-02-23T06:01:56.863Z,0
2018-02-23T06:02:57.440Z,0
2018-02-23T06:03:58.017Z,0
2018-02-23T06:04:58.597Z,0
2018-02-23T06:05:59.176Z,0
2018-02-23T06:06:59.753Z,0
2018-02-23T06:08:00.331Z,0
2018-02-23T06:09:00.916Z,0
2018-02-23T06:10:01.501Z,0
2018-02-23T06:11:02.076Z,0
2018-02-23T06:12:02.705Z,0
2018-02-23T06:13:03.281Z,0
2018-02-23T06:14:03.861Z,0
2018-02-23T06:15:04.441Z,0
2018-02-23T06:16:05.019Z,0
2018-02-23T06:17:05.602Z,0
2018-02-23T06:18:06.180Z,0
2018-02-23T06:19:06.762Z,0
2018-02-23T06:20:07.393Z,0
2018-02-23T06:21:08.024Z,0
2018-02-23T06:22:08.604Z,0
2018-02-23T06:23:09.184Z,0
2018-02-23T06:24:09.764Z,0
2018-02-23T06:25:10.339Z,0
2018-02-23T06:26:10.917Z,0
2018-02-23T06:27:11.493Z,0
2018-02-23T06:28:12.072Z,0
2018-02-23T06:29:12.805Z,0
2018-02-23T06:30:13.389Z,0
2018-02-23T06:31:14.064Z,0
2018-02-23T06:32:14.642Z,0
2018-02-23T06:33:15.325Z,0
2018-02-23T06:34:15.906Z,0
2018-02-23T06:35:16.485Z,0
2018-02-23T06:36:17.163Z,0
2018-02-23T06:37:17.737Z,0
2018-02-23T06:38:18.314Z,0
2018-02-23T06:39:18.891Z,0
2018-02-23T06:40:19.470Z,0
2018-02-23T06:41:20.053Z,0
2018-02-23T06:42:20.721Z,0
2018-02-23T06:43:21.300Z,0
2018-02-23T06:44:21.875Z,0
2018-02-23T06:45:22.457Z,0
2018-02-23T06:46:23.033Z,0
2018-02-23T06:47:23.610Z,0
2018-02-23T06:48:24.240Z,0
2018-02-23T06:49:24.816Z,0
2018-02-23T06:50:25.395Z,0
2018-02-23T06:51:26.022Z,0
2018-02-23T06:52:26.622Z,0
2018-02-23T06:53:27.181Z,0
2018-02-23T06:54:27.766Z,0
2018-02-23T06:55:28.393Z,0
2018-02-23T06:56:28.971Z,0
2018-02-23T06:57:29.551Z,0
2018-02-23T06:58:30.134Z,0
2018-02-23T06:59:30.712Z,0
2018-02-23T07:00:31.295Z,0
2018-02-23T07:01:31.874Z,0
2018-02-23T07:02:32.451Z,0
2018-02-23T07:03:33.032Z,0
2018-02-23T07:04:33.611Z,0
2018-02-23T07:05:34.186Z,0
2018-02-23T07:06:34.918Z,0
2018-02-23T07:07:35.537Z,0
2018-02-23T07:08:36.117Z,0
2018-02-23T07:09:36.701Z,0
2018-02-23T07:10:37.279Z,0
2018-02-23T07:11:37.909Z,0
2018-02-23T07:12:38.486Z,0
2018-02-23T07:13:39.112Z,0
2018-02-23T07:14:39.737Z,0
2018-02-23T07:15:40.311Z,0
2018-02-23T07:16:40.939Z,0
2018-02-23T07:17:41.516Z,0
2018-02-23T07:18:42.096Z,0
2018-02-23T07:19:42.674Z,0
2018-02-23T07:20:43.251Z,0
2018-02-23T07:21:43.884Z,0
2018-02-23T07:22:44.463Z,0
2018-02-23T07:23:45.042Z,0
2018-02-23T07:24:45.624Z,0
2018-02-23T07:25:46.351Z,0
2018-02-23T07:26:46.929Z,0
2018-02-23T07:27:47.508Z,0
2018-02-23T07:28:48.136Z,0
2018-02-23T07:29:48.717Z,0
2018-02-23T07:30:49.350Z,0
2018-02-23T07:31:49.934Z,0
2018-02-23T07:32:50.557Z,0
2018-02-23T07:33:51.138Z,0
2018-02-23T07:34:51.718Z,0
2018-02-23T07:35:52.297Z,0
2018-02-23T07:36:52.877Z,0
2018-02-23T07:37:53.452Z,0
2018-02-23T07:38:54.032Z,0
2018-02-23T07:39:54.657Z,0
2018-02-23T07:40:55.234Z,0
2018-02-23T07:41:55.817Z,0
2018-02-23T07:42:56.398Z,0
2018-02-23T07:43:57.025Z,0
2018-02-23T07:44:57.607Z,0
2018-02-23T07:45:58.184Z,0
2018-02-23T07:46:58.809Z,0
2018-02-23T07:47:59.389Z,0
2018-02-23T07:49:00.018Z,0
2018-02-23T07:50:00.596Z,0
2018-02-23T07:51:01.173Z,0
2018-02-23T07:52:01.797Z,0
2018-02-23T07:53:02.374Z,0
2018-02-23T07:54:02.959Z,0
2018-02-23T07:55:03.540Z,0
2018-02-23T07:56:04.117Z,0
2018-02-23T07:57:04.696Z,0
2018-02-23T07:58:05.272Z,0
2018-02-23T07:59:05.858Z,0
2018-02-23T08:00:06.434Z,0
2018-02-23T08:01:07.011Z,0
2018-02-23T08:02:07.593Z,0
2018-02-23T08:03:08.215Z,0
2018-02-23T08:04:08.844Z,0
2018-02-23T08:05:09.475Z,0
2018-02-23T08:06:10.059Z,0
2018-02-23T08:07:10.638Z,0
2018-02-23T08:08:11.215Z,0
2018-02-23T08:09:11.797Z,0
2018-02-23T08:10:12.521Z,0
2018-02-23T08:11:13.104Z,0
2018-02-23T08:12:13.681Z,0
2018-02-23T08:13:14.264Z,0
2018-02-23T08:14:14.894Z,0
2018-02-23T08:15:15.520Z,0
2018-02-23T08:16:16.096Z,0
2018-02-23T08:17:16.673Z,0
2018-02-23T08:18:17.249Z,0
2018-02-23T08:19:17.877Z,0
2018-02-23T08:20:18.484Z,0
2018-02-23T08:21:19.033Z,0
2018-02-23T08:22:19.619Z,0
2018-02-23T08:23:20.235Z,0
2018-02-23T08:24:20.964Z,0
2018-02-23T08:25:21.592Z,0
2018-02-23T08:26:22.173Z,0
2018-02-23T08:27:22.751Z,0
2018-02-23T08:28:23.329Z,0
2018-02-23T08:29:23.912Z,0
2018-02-23T08:30:24.490Z,0
2018-02-23T08:31:25.073Z,0
2018-02-23T08:32:25.649Z,0
2018-02-23T08:33:26.229Z,0
2018-02-23T08:34:26.857Z,0
2018-02-23T08:35:27.489Z,0
2018-02-23T08:36:28.068Z,0
2018-02-23T08:37:28.647Z,0
2018-02-23T08:38:29.233Z,0
2018-02-23T08:39:29.863Z,0
2018-02-23T08:40:30.444Z,0
2018-02-23T08:41:31.075Z,8
2018-02-23T08:42:31.648Z,0
2018-02-23T08:43:32.224Z,0
2018-02-23T08:44:32.801Z,4
2018-02-23T08:45:33.382Z,8
2018-02-23T08:46:33.957Z,8
2018-02-23T08:47:34.586Z,8
2018-02-23T08:48:35.165Z,8
2018-02-23T08:49:35.742Z,8
2018-02-23T08:50:36.324Z,8
2018-02-23T08:51:36.903Z,8
2018-02-23T08:52:37.478Z,8
2018-02-23T08:53:38.110Z,8
2018-02-23T08:54:38.686Z,8
2018-02-23T08:55:39.318Z,8
2018-02-23T08:56:39.893Z,8
2018-02-23T08:57:40.472Z,12
2018-02-23T08:58:41.053Z,12
2018-02-23T08:59:41.679Z,12
2018-02-23T09:00:42.258Z,12
2018-02-23T09:01:42.838Z,12
2018-02-23T09:02:43.420Z,8
2018-02-23T09:03:44.048Z,8
2018-02-23T09:04:44.629Z,8
2018-02-23T09:05:45.209Z,8
2018-02-23T09:06:45.829Z,8
2018-02-23T09:07:46.411Z,8
2018-02-23T09:08:46.987Z,8
2018-02-23T09:09:47.619Z,12
2018-02-23T09:10:48.202Z,12
2018-02-23T09:11:48.785Z,12
2018-02-23T09:12:49.367Z,12
2018-02-23T09:13:49.948Z,12
2018-02-23T09:14:50.524Z,12
2018-02-23T09:15:51.307Z,12
2018-02-23T09:16:51.882Z,12
2018-02-23T09:17:52.463Z,12
2018-02-23T09:18:53.042Z,12
2018-02-23T09:19:53.669Z,12
2018-02-23T09:20:54.251Z,12
2018-02-23T09:21:54.832Z,8
2018-02-23T09:22:55.408Z,8
2018-02-23T09:23:55.985Z,8
2018-02-23T09:24:56.561Z,8
2018-02-23T09:25:57.143Z,12
2018-02-23T09:26:57.720Z,12
2018-02-23T09:27:58.301Z,12
2018-02-23T09:28:58.934Z,12
2018-02-23T09:29:59.559Z,12
2018-02-23T09:31:00.097Z,12
2018-02-23T09:32:00.677Z,12
2018-02-23T09:33:01.258Z,12
2018-02-23T09:34:01.889Z,12
2018-02-23T09:35:02.470Z,12
2018-02-23T09:36:03.050Z,12
2018-02-23T09:37:03.631Z,12
2018-02-23T09:38:04.214Z,12
2018-02-23T09:39:04.799Z,12
2018-02-23T09:40:05.528Z,16
2018-02-23T09:41:06.111Z,12
2018-02-23T09:42:06.692Z,12
2018-02-23T09:43:07.268Z,12
2018-02-23T09:44:07.848Z,12
2018-02-23T09:45:08.426Z,12
2018-02-23T09:46:09.011Z,12
2018-02-23T09:47:09.644Z,12
2018-02-23T09:48:10.225Z,12
2018-02-23T09:49:10.804Z,12
2018-02-23T09:50:11.421Z,12
2018-02-23T09:51:11.968Z,12
2018-02-23T09:52:12.592Z,12
2018-02-23T09:53:13.224Z,12
2018-02-23T09:54:13.852Z,12
2018-02-23T09:55:14.435Z,12
2018-02-23T09:56:15.016Z,12
2018-02-23T09:57:15.597Z,12
2018-02-23T09:58:16.228Z,12
2018-02-23T09:59:16.807Z,12
2018-02-23T10:00:17.388Z,12
2018-02-23T10:01:17.965Z,12
2018-02-23T10:02:18.546Z,12
2018-02-23T10:03:19.170Z,12
2018-02-23T10:04:19.753Z,16
2018-02-23T10:05:20.327Z,16
2018-02-23T10:06:20.906Z,16
2018-02-23T10:07:21.540Z,16
2018-02-23T10:08:22.169Z,16
2018-02-23T10:09:22.746Z,16
2018-02-23T10:10:23.323Z,16
2018-02-23T10:11:23.904Z,16
2018-02-23T10:12:24.483Z,16
2018-02-23T10:13:25.062Z,16
2018-02-23T10:14:25.690Z,16
2018-02-23T10:15:26.271Z,16
2018-02-23T10:16:26.853Z,16
2018-02-23T10:17:32.585Z,16
2018-02-23T10:18:33.316Z,16
2018-02-23T10:19:33.897Z,16
2018-02-23T10:20:34.478Z,16
2018-02-23T10:21:35.060Z,16
2018-02-23T10:22:35.639Z,16
2018-02-23T10:23:36.244Z,16
2018-02-23T10:24:36.850Z,16
2018-02-23T10:25:37.432Z,16
2018-02-23T10:26:38.015Z,16
2018-02-23T10:27:38.592Z,16
2018-02-23T10:28:39.173Z,16
2018-02-23T10:29:39.799Z,16
2018-02-23T10:30:40.381Z,16
2018-02-23T10:31:40.962Z,16
2018-02-23T10:32:41.583Z,16
2018-02-23T10:33:42.125Z,16
2018-02-23T10:34:42.758Z,16
2018-02-23T10:35:43.329Z,16
2018-02-23T10:36:43.910Z,12
2018-02-23T10:37:44.487Z,12
2018-02-23T10:38:45.113Z,12
2018-02-23T10:39:45.737Z,12
2018-02-23T10:40:46.314Z,12
2018-02-23T10:41:46.892Z,12
2018-02-23T10:42:47.473Z,12
2018-02-23T10:43:48.056Z,12
2018-02-23T10:44:48.638Z,12
2018-02-23T10:45:49.365Z,12
2018-02-23T10:46:49.946Z,12
2018-02-23T10:47:50.522Z,12
2018-02-23T10:48:51.103Z,12
2018-02-23T10:49:51.685Z,12
2018-02-23T10:50:52.261Z,12
2018-02-23T10:51:53.041Z,12
2018-02-23T10:52:53.624Z,12
2018-02-23T10:53:54.252Z,12
2018-02-23T10:54:54.879Z,12
2018-02-23T10:55:55.461Z,12
2018-02-23T10:56:56.043Z,12
2018-02-23T10:57:56.674Z,12
2018-02-23T10:58:57.297Z,12
2018-02-23T10:59:57.877Z,16
2018-02-23T11:00:58.459Z,16
2018-02-23T11:01:59.042Z,16
2018-02-23T11:02:59.776Z,16
2018-02-23T11:04:00.355Z,16
2018-02-23T11:05:00.936Z,16
2018-02-23T11:06:01.518Z,16
2018-02-23T11:07:02.100Z,16
2018-02-23T11:08:02.680Z,16
2018-02-23T11:09:03.263Z,16
2018-02-23T11:10:03.889Z,16
2018-02-23T11:11:04.475Z,16
2018-02-23T11:12:05.046Z,16
2018-02-23T11:13:05.624Z,16
2018-02-23T11:14:06.254Z,12
2018-02-23T11:15:06.832Z,12
2018-02-23T11:16:07.410Z,12
2018-02-23T11:17:07.991Z,12
2018-02-23T11:18:08.573Z,16
2018-02-23T11:19:09.152Z,16
2018-02-23T11:20:09.729Z,16
2018-02-23T11:21:10.311Z,16
2018-02-23T11:22:10.891Z,16
2018-02-23T11:23:11.470Z,16
2018-02-23T11:24:12.055Z,16
2018-02-23T11:25:12.636Z,16
2018-02-23T11:26:13.217Z,16
2018-02-23T11:27:13.848Z,16
2018-02-23T11:28:14.424Z,16
2018-02-23T11:29:15.004Z,16
2018-02-23T11:30:15.635Z,16
2018-02-23T11:31:16.274Z,16
2018-02-23T11:32:16.853Z,16
2018-02-23T11:33:17.435Z,16
2018-02-23T11:34:18.018Z,16
2018-02-23T11:35:18.601Z,16
2018-02-23T11:36:19.185Z,16
2018-02-23T11:37:19.768Z,16
2018-02-23T11:38:20.345Z,16
2018-02-23T11:39:20.929Z,12
2018-02-23T11:40:21.505Z,12
2018-02-23T11:41:22.087Z,12
2018-02-23T11:42:22.664Z,12
2018-02-23T11:43:23.249Z,12
2018-02-23T11:44:23.827Z,12
2018-02-23T11:45:24.408Z,12
2018-02-23T11:46:25.043Z,12
2018-02-23T11:47:25.664Z,12
2018-02-23T11:48:26.291Z,12
2018-02-23T11:49:26.869Z,12
2018-02-23T11:50:27.467Z,12
2018-02-23T11:51:28.113Z,12
2018-02-23T11:52:28.693Z,12
2018-02-23T11:53:29.274Z,12
2018-02-23T11:54:29.853Z,12
2018-02-23T11:55:30.433Z,12
2018-02-23T11:56:31.016Z,12
2018-02-23T11:57:31.597Z,12
2018-02-23T11:58:32.181Z,12
2018-02-23T11:59:32.761Z,16
2018-02-23T12:00:33.342Z,16
2018-02-23T12:01:33.924Z,16
2018-02-23T12:02:34.508Z,16
2018-02-23T12:03:35.091Z,16
2018-02-23T12:04:35.717Z,16
2018-02-23T12:05:36.302Z,16
2018-02-23T12:06:36.927Z,16
2018-02-23T12:07:37.514Z,16
2018-02-23T12:08:38.140Z,16
2018-02-23T12:09:38.772Z,16
2018-02-23T12:10:39.354Z,16
2018-02-23T12:11:39.935Z,16
2018-02-23T12:12:40.514Z,16
2018-02-23T12:13:41.102Z,16
2018-02-23T12:14:41.672Z,16
2018-02-23T12:15:42.250Z,16
2018-02-23T12:16:42.831Z,12
2018-02-23T12:17:43.416Z,12
2018-02-23T12:18:43.991Z,12
2018-02-23T12:19:44.624Z,12
2018-02-23T12:20:45.209Z,12
2018-02-23T12:21:45.838Z,12
2018-02-23T12:22:46.417Z,12
2018-02-23T12:23:47.046Z,12
2018-02-23T12:24:47.622Z,16
2018-02-23T12:25:48.202Z,16
2018-02-23T12:26:48.831Z,16
2018-02-23T12:27:49.409Z,16
2018-02-23T12:28:49.995Z,16
2018-02-23T12:29:50.577Z,16
2018-02-23T12:30:51.304Z,16
2018-02-23T12:31:51.984Z,16
2018-02-23T12:32:52.666Z,16
2018-02-23T12:33:53.249Z,16
2018-02-23T12:34:53.832Z,16
2018-02-23T12:35:54.412Z,16
2018-02-23T12:36:54.991Z,16
2018-02-23T12:37:55.575Z,16
2018-02-23T12:38:56.158Z,16
2018-02-23T12:39:56.740Z,16
2018-02-23T12:40:57.318Z,16
2018-02-23T12:41:57.898Z,16
2018-02-23T12:42:58.476Z,16
2018-02-23T12:43:59.108Z,12
2018-02-23T12:44:59.686Z,16
2018-02-23T12:46:00.266Z,16
2018-02-23T12:47:00.847Z,16
2018-02-23T12:48:01.432Z,16
2018-02-23T12:49:02.094Z,16
2018-02-23T12:50:02.673Z,16
2018-02-23T12:51:03.304Z,16
2018-02-23T12:52:03.885Z,16
2018-02-23T12:53:04.514Z,16
2018-02-23T12:54:05.145Z,16
2018-02-23T12:55:05.675Z,16
2018-02-23T12:56:06.254Z,16
2018-02-23T12:57:06.836Z,16
2018-02-23T12:58:07.421Z,16
2018-02-23T12:59:08.004Z,16
2018-02-23T13:00:08.588Z,16
2018-02-23T13:01:09.171Z,16
2018-02-23T13:02:09.752Z,16
2018-02-23T13:03:10.332Z,16
2018-02-23T13:04:10.914Z,16
2018-02-23T13:05:11.491Z,16
2018-02-23T13:06:12.130Z,16
2018-02-23T13:07:12.712Z,16
2018-02-23T13:08:13.285Z,16
2018-02-23T13:09:13.919Z,20
2018-02-23T13:10:14.502Z,20
2018-02-23T13:11:15.130Z,20
2018-02-23T13:12:15.712Z,20
2018-02-23T13:13:16.296Z,20
2018-02-23T13:14:16.929Z,20
2018-02-23T13:15:17.509Z,20
2018-02-23T13:16:18.092Z,16
2018-02-23T13:17:18.721Z,16
2018-02-23T13:18:19.302Z,16
2018-02-23T13:19:19.883Z,16
2018-02-23T13:20:20.464Z,16
2018-02-23T13:21:21.043Z,16
2018-02-23T13:22:21.623Z,16
2018-02-23T13:23:22.250Z,20
2018-02-23T13:24:22.842Z,20
2018-02-23T13:25:23.414Z,20
2018-02-23T13:26:24.045Z,20
2018-02-23T13:27:24.623Z,20
2018-02-23T13:28:25.204Z,20
2018-02-23T13:29:25.827Z,20
2018-02-23T13:30:26.460Z,20
2018-02-23T13:31:27.089Z,20
2018-02-23T13:32:27.671Z,16
2018-02-23T13:33:28.249Z,16
2018-02-23T13:34:28.828Z,16
2018-02-23T13:35:29.409Z,16
2018-02-23T13:36:29.996Z,16
2018-02-23T13:37:30.578Z,16
2018-02-23T13:38:31.158Z,20
2018-02-23T13:39:31.784Z,20
2018-02-23T13:40:32.325Z,20
2018-02-23T13:41:32.958Z,20
2018-02-23T13:42:33.538Z,20
2018-02-23T13:43:34.123Z,16
2018-02-23T13:44:34.702Z,20
2018-02-23T13:45:35.282Z,20
2018-02-23T13:46:35.914Z,20
2018-02-23T13:47:36.495Z,20
2018-02-23T13:48:37.125Z,20
2018-02-23T13:49:37.701Z,20
2018-02-23T13:50:38.289Z,20
2018-02-23T13:51:38.869Z,20
2018-02-23T13:52:39.450Z,20
2018-02-23T13:53:40.028Z,20
2018-02-23T13:54:40.608Z,20
2018-02-23T13:55:41.190Z,20
2018-02-23T13:56:41.769Z,20
2018-02-23T13:57:42.399Z,24
2018-02-23T13:58:42.979Z,24
2018-02-23T13:59:43.560Z,24
2018-02-23T14:00:44.139Z,20
2018-02-23T14:01:44.719Z,20
2018-02-23T14:02:45.300Z,24
2018-02-23T14:03:45.879Z,24
2018-02-23T14:04:46.512Z,24
2018-02-23T14:05:47.093Z,24
2018-02-23T14:06:47.673Z,24
2018-02-23T14:07:48.304Z,24
2018-02-23T14:08:48.890Z,24
2018-02-23T14:09:49.467Z,20
2018-02-23T14:10:50.044Z,24
2018-02-23T14:11:50.621Z,24
2018-02-23T14:12:51.199Z,24
2018-02-23T14:13:51.781Z,24
2018-02-23T14:14:52.368Z,24
2018-02-23T14:15:52.939Z,20
2018-02-23T14:16:53.518Z,24
2018-02-23T14:17:54.160Z,24
2018-02-23T14:18:54.774Z,28
2018-02-23T14:19:55.397Z,24
2018-02-23T14:20:55.975Z,24
2018-02-23T14:21:56.557Z,24
2018-02-23T14:22:57.139Z,24
2018-02-23T14:23:57.766Z,24
2018-02-23T14:24:58.344Z,28
2018-02-23T14:25:58.978Z,28
2018-02-23T14:26:59.560Z,24
2018-02-23T14:28:00.142Z,24
2018-02-23T14:29:00.726Z,24
2018-02-23T14:30:01.308Z,28
2018-02-23T14:31:01.888Z,28
2018-02-23T14:32:02.471Z,28
2018-02-23T14:33:03.053Z,28
2018-02-23T14:34:03.633Z,24
2018-02-23T14:35:04.267Z,28
2018-02-23T14:36:04.850Z,28
2018-02-23T14:37:05.434Z,28
2018-02-23T14:38:06.055Z,32
2018-02-23T14:39:06.684Z,28
2018-02-23T14:40:07.264Z,28
2018-02-23T14:41:07.843Z,32
2018-02-23T14:42:08.575Z,32
2018-02-23T14:43:09.159Z,28